sensor_id;sensor_type;location;lat;lon;timestamp;P1;durP1;ratioP1;P2;durP2;ratioP2
79178;SDS011;68608;49.904;16.436;2023-12-07T00:01:02;117.00;;;68.53;;
79178;SDS011;68608;49.904;16.436;2023-12-07T00:03:28;112.30;;;63.93;;
79178;SDS011;68608;49.904;16.436;2023-12-07T00:05:55;120.07;;;67.43;;
79178;SDS011;68608;49.904;16.436;2023-12-07T00:08:21;120.33;;;69.07;;
79178;SDS011;68608;49.904;16.436;2023-12-07T00:10:47;109.37;;;67.63;;
79178;SDS011;68608;49.904;16.436;2023-12-07T00:13:13;114.50;;;69.17;;
79178;SDS011;68608;49.904;16.436;2023-12-07T00:15:39;114.23;;;67.37;;
79178;SDS011;68608;49.904;16.436;2023-12-07T00:18:05;102.23;;;61.80;;
79178;SDS011;68608;49.904;16.436;2023-12-07T00:20:31;113.13;;;65.67;;
79178;SDS011;68608;49.904;16.436;2023-12-07T00:22:57;117.27;;;68.70;;
79178;SDS011;68608;49.904;16.436;2023-12-07T00:25:23;108.47;;;65.03;;
79178;SDS011;68608;49.904;16.436;2023-12-07T00:27:49;114.67;;;64.60;;
79178;SDS011;68608;49.904;16.436;2023-12-07T00:30:16;116.77;;;66.20;;
79178;SDS011;68608;49.904;16.436;2023-12-07T00:32:43;111.83;;;64.93;;
79178;SDS011;68608;49.904;16.436;2023-12-07T00:35:12;116.37;;;65.70;;
79178;SDS011;68608;49.904;16.436;2023-12-07T00:37:39;110.20;;;62.93;;
79178;SDS011;68608;49.904;16.436;2023-12-07T00:40:05;97.10;;;56.60;;
79178;SDS011;68608;49.904;16.436;2023-12-07T00:42:33;98.37;;;56.87;;
79178;SDS011;68608;49.904;16.436;2023-12-07T00:45:01;99.57;;;56.13;;
79178;SDS011;68608;49.904;16.436;2023-12-07T00:47:27;87.80;;;48.10;;
79178;SDS011;68608;49.904;16.436;2023-12-07T00:49:53;87.40;;;47.33;;
79178;SDS011;68608;49.904;16.436;2023-12-07T00:52:19;89.20;;;50.90;;
79178;SDS011;68608;49.904;16.436;2023-12-07T00:54:49;85.87;;;49.87;;
79178;SDS011;68608;49.904;16.436;2023-12-07T00:57:15;83.30;;;45.17;;
79178;SDS011;68608;49.904;16.436;2023-12-07T00:59:43;78.63;;;46.00;;
79178;SDS011;68608;49.904;16.436;2023-12-07T01:02:09;86.70;;;47.70;;
79178;SDS011;68608;49.904;16.436;2023-12-07T01:04:35;79.90;;;45.77;;
79178;SDS011;68608;49.904;16.436;2023-12-07T01:07:01;85.47;;;47.03;;
79178;SDS011;68608;49.904;16.436;2023-12-07T01:09:27;87.80;;;47.73;;
79178;SDS011;68608;49.904;16.436;2023-12-07T01:12:01;90.80;;;48.63;;
79178;SDS011;68608;49.904;16.436;2023-12-07T01:14:27;85.33;;;49.60;;
79178;SDS011;68608;49.904;16.436;2023-12-07T01:16:55;84.03;;;48.13;;
79178;SDS011;68608;49.904;16.436;2023-12-07T01:19:21;90.70;;;50.37;;
79178;SDS011;68608;49.904;16.436;2023-12-07T01:21:47;86.60;;;45.40;;
79178;SDS011;68608;49.904;16.436;2023-12-07T01:24:13;74.20;;;43.37;;
79178;SDS011;68608;49.904;16.436;2023-12-07T01:26:39;80.57;;;46.83;;
79178;SDS011;68608;49.904;16.436;2023-12-07T01:29:05;79.00;;;44.90;;
79178;SDS011;68608;49.904;16.436;2023-12-07T01:31:31;77.83;;;42.87;;
79178;SDS011;68608;49.904;16.436;2023-12-07T01:33:57;78.70;;;42.63;;
79178;SDS011;68608;49.904;16.436;2023-12-07T01:36:24;71.23;;;42.27;;
79178;SDS011;68608;49.904;16.436;2023-12-07T01:38:50;73.20;;;43.20;;
79178;SDS011;68608;49.904;16.436;2023-12-07T01:41:17;76.57;;;42.60;;
79178;SDS011;68608;49.904;16.436;2023-12-07T01:43:46;75.70;;;41.13;;
79178;SDS011;68608;49.904;16.436;2023-12-07T01:46:13;67.53;;;40.53;;
79178;SDS011;68608;49.904;16.436;2023-12-07T01:48:42;60.80;;;37.43;;
79178;SDS011;68608;49.904;16.436;2023-12-07T01:51:08;66.57;;;39.60;;
79178;SDS011;68608;49.904;16.436;2023-12-07T01:53:35;64.07;;;35.67;;
79178;SDS011;68608;49.904;16.436;2023-12-07T01:56:01;66.27;;;37.80;;
79178;SDS011;68608;49.904;16.436;2023-12-07T01:58:33;66.20;;;38.13;;
79178;SDS011;68608;49.904;16.436;2023-12-07T02:01:02;65.40;;;40.27;;
79178;SDS011;68608;49.904;16.436;2023-12-07T02:06:29;66.67;;;37.97;;
79178;SDS011;68608;49.904;16.436;2023-12-07T02:09:08;70.40;;;38.90;;
79178;SDS011;68608;49.904;16.436;2023-12-07T02:11:42;71.97;;;39.77;;
79178;SDS011;68608;49.904;16.436;2023-12-07T02:14:08;66.07;;;39.53;;
79178;SDS011;68608;49.904;16.436;2023-12-07T02:16:45;65.77;;;40.07;;
79178;SDS011;68608;49.904;16.436;2023-12-07T02:22:10;62.40;;;39.70;;
79178;SDS011;68608;49.904;16.436;2023-12-07T02:24:47;62.07;;;36.73;;
79178;SDS011;68608;49.904;16.436;2023-12-07T02:27:14;64.87;;;40.63;;
79178;SDS011;68608;49.904;16.436;2023-12-07T02:29:40;66.10;;;40.80;;
79178;SDS011;68608;49.904;16.436;2023-12-07T02:32:06;64.43;;;38.23;;
79178;SDS011;68608;49.904;16.436;2023-12-07T02:34:32;65.40;;;39.13;;
79178;SDS011;68608;49.904;16.436;2023-12-07T02:36:58;62.43;;;38.50;;
79178;SDS011;68608;49.904;16.436;2023-12-07T02:39:26;66.07;;;40.53;;
79178;SDS011;68608;49.904;16.436;2023-12-07T02:42:09;65.63;;;39.17;;
79178;SDS011;68608;49.904;16.436;2023-12-07T02:51:26;75.97;;;41.30;;
79178;SDS011;68608;49.904;16.436;2023-12-07T02:53:53;79.30;;;41.30;;
79178;SDS011;68608;49.904;16.436;2023-12-07T02:56:19;80.60;;;44.13;;
79178;SDS011;68608;49.904;16.436;2023-12-07T02:58:45;66.73;;;43.03;;
79178;SDS011;68608;49.904;16.436;2023-12-07T03:01:13;68.70;;;40.63;;
79178;SDS011;68608;49.904;16.436;2023-12-07T03:03:39;69.03;;;37.63;;
79178;SDS011;68608;49.904;16.436;2023-12-07T03:06:07;63.13;;;39.57;;
79178;SDS011;68608;49.904;16.436;2023-12-07T03:08:33;70.97;;;40.93;;
79178;SDS011;68608;49.904;16.436;2023-12-07T03:10:59;68.60;;;39.40;;
79178;SDS011;68608;49.904;16.436;2023-12-07T03:13:25;69.90;;;40.20;;
79178;SDS011;68608;49.904;16.436;2023-12-07T03:15:51;73.33;;;39.00;;
79178;SDS011;68608;49.904;16.436;2023-12-07T03:18:17;67.33;;;39.50;;
79178;SDS011;68608;49.904;16.436;2023-12-07T03:20:43;69.03;;;39.33;;
79178;SDS011;68608;49.904;16.436;2023-12-07T03:23:10;70.57;;;38.03;;
79178;SDS011;68608;49.904;16.436;2023-12-07T03:25:36;68.57;;;37.30;;
79178;SDS011;68608;49.904;16.436;2023-12-07T03:28:02;65.67;;;37.20;;
79178;SDS011;68608;49.904;16.436;2023-12-07T03:30:28;64.03;;;37.77;;
79178;SDS011;68608;49.904;16.436;2023-12-07T03:32:54;67.63;;;39.33;;
79178;SDS011;68608;49.904;16.436;2023-12-07T03:35:20;65.80;;;38.70;;
79178;SDS011;68608;49.904;16.436;2023-12-07T03:37:46;68.00;;;39.97;;
79178;SDS011;68608;49.904;16.436;2023-12-07T03:40:12;68.70;;;38.90;;
79178;SDS011;68608;49.904;16.436;2023-12-07T03:42:38;68.70;;;38.60;;
79178;SDS011;68608;49.904;16.436;2023-12-07T03:45:05;74.43;;;41.63;;
79178;SDS011;68608;49.904;16.436;2023-12-07T03:47:31;76.63;;;41.90;;
79178;SDS011;68608;49.904;16.436;2023-12-07T03:49:57;80.23;;;41.23;;
79178;SDS011;68608;49.904;16.436;2023-12-07T03:52:23;78.60;;;43.23;;
79178;SDS011;68608;49.904;16.436;2023-12-07T03:54:49;89.27;;;46.03;;
79178;SDS011;68608;49.904;16.436;2023-12-07T03:57:15;83.63;;;46.27;;
79178;SDS011;68608;49.904;16.436;2023-12-07T03:59:41;89.27;;;46.53;;
79178;SDS011;68608;49.904;16.436;2023-12-07T04:02:07;80.83;;;44.10;;
79178;SDS011;68608;49.904;16.436;2023-12-07T04:04:33;84.57;;;44.20;;
79178;SDS011;68608;49.904;16.436;2023-12-07T04:06:59;88.57;;;46.90;;
79178;SDS011;68608;49.904;16.436;2023-12-07T04:09:25;85.50;;;47.90;;
79178;SDS011;68608;49.904;16.436;2023-12-07T04:11:54;88.33;;;46.47;;
79178;SDS011;68608;49.904;16.436;2023-12-07T04:14:20;79.80;;;44.73;;
79178;SDS011;68608;49.904;16.436;2023-12-07T04:16:46;78.90;;;45.50;;
79178;SDS011;68608;49.904;16.436;2023-12-07T04:19:12;88.00;;;48.30;;
79178;SDS011;68608;49.904;16.436;2023-12-07T04:21:38;85.00;;;46.33;;
79178;SDS011;68608;49.904;16.436;2023-12-07T04:24:07;77.37;;;45.57;;
79178;SDS011;68608;49.904;16.436;2023-12-07T04:26:33;84.33;;;43.13;;
79178;SDS011;68608;49.904;16.436;2023-12-07T04:28:59;78.73;;;43.93;;
79178;SDS011;68608;49.904;16.436;2023-12-07T04:31:25;82.13;;;46.30;;
79178;SDS011;68608;49.904;16.436;2023-12-07T04:33:51;73.53;;;43.83;;
79178;SDS011;68608;49.904;16.436;2023-12-07T04:36:20;80.53;;;46.73;;
79178;SDS011;68608;49.904;16.436;2023-12-07T04:38:46;87.77;;;47.50;;
79178;SDS011;68608;49.904;16.436;2023-12-07T04:41:15;87.53;;;46.27;;
79178;SDS011;68608;49.904;16.436;2023-12-07T04:43:41;87.77;;;48.50;;
79178;SDS011;68608;49.904;16.436;2023-12-07T04:46:07;82.30;;;46.03;;
79178;SDS011;68608;49.904;16.436;2023-12-07T04:48:33;83.30;;;45.83;;
79178;SDS011;68608;49.904;16.436;2023-12-07T04:50:59;91.30;;;48.23;;
79178;SDS011;68608;49.904;16.436;2023-12-07T04:53:25;92.43;;;49.53;;
79178;SDS011;68608;49.904;16.436;2023-12-07T04:55:51;95.37;;;50.00;;
79178;SDS011;68608;49.904;16.436;2023-12-07T04:58:17;85.50;;;47.77;;
79178;SDS011;68608;49.904;16.436;2023-12-07T05:00:43;79.73;;;45.77;;
79178;SDS011;68608;49.904;16.436;2023-12-07T05:03:10;80.03;;;45.43;;
79178;SDS011;68608;49.904;16.436;2023-12-07T05:05:36;76.40;;;43.90;;
79178;SDS011;68608;49.904;16.436;2023-12-07T05:08:02;79.90;;;45.67;;
79178;SDS011;68608;49.904;16.436;2023-12-07T05:10:31;78.97;;;44.20;;
79178;SDS011;68608;49.904;16.436;2023-12-07T05:12:59;70.93;;;42.03;;
79178;SDS011;68608;49.904;16.436;2023-12-07T05:15:25;68.33;;;39.67;;
79178;SDS011;68608;49.904;16.436;2023-12-07T05:17:52;65.17;;;38.87;;
79178;SDS011;68608;49.904;16.436;2023-12-07T05:20:18;76.20;;;44.50;;
79178;SDS011;68608;49.904;16.436;2023-12-07T05:22:47;70.63;;;40.97;;
79178;SDS011;68608;49.904;16.436;2023-12-07T05:25:13;59.27;;;37.60;;
79178;SDS011;68608;49.904;16.436;2023-12-07T05:27:42;52.07;;;36.13;;
79178;SDS011;68608;49.904;16.436;2023-12-07T05:30:09;53.90;;;34.37;;
79178;SDS011;68608;49.904;16.436;2023-12-07T05:32:35;52.23;;;34.17;;
79178;SDS011;68608;49.904;16.436;2023-12-07T05:35:01;56.70;;;36.43;;
79178;SDS011;68608;49.904;16.436;2023-12-07T05:37:28;54.40;;;35.40;;
79178;SDS011;68608;49.904;16.436;2023-12-07T05:39:54;52.50;;;35.70;;
79178;SDS011;68608;49.904;16.436;2023-12-07T05:42:20;52.10;;;34.83;;
79178;SDS011;68608;49.904;16.436;2023-12-07T05:44:49;54.43;;;35.67;;
79178;SDS011;68608;49.904;16.436;2023-12-07T05:47:16;47.10;;;32.60;;
79178;SDS011;68608;49.904;16.436;2023-12-07T05:49:44;52.33;;;31.03;;
79178;SDS011;68608;49.904;16.436;2023-12-07T05:52:10;51.90;;;34.23;;
79178;SDS011;68608;49.904;16.436;2023-12-07T05:54:36;53.23;;;32.40;;
79178;SDS011;68608;49.904;16.436;2023-12-07T05:57:07;46.53;;;29.13;;
79178;SDS011;68608;49.904;16.436;2023-12-07T05:59:36;47.67;;;29.90;;
79178;SDS011;68608;49.904;16.436;2023-12-07T06:02:03;49.57;;;29.10;;
79178;SDS011;68608;49.904;16.436;2023-12-07T06:04:29;45.90;;;30.50;;
79178;SDS011;68608;49.904;16.436;2023-12-07T06:06:56;46.03;;;30.13;;
79178;SDS011;68608;49.904;16.436;2023-12-07T06:09:22;39.83;;;28.17;;
79178;SDS011;68608;49.904;16.436;2023-12-07T06:11:48;43.37;;;29.43;;
79178;SDS011;68608;49.904;16.436;2023-12-07T06:14:14;46.67;;;27.73;;
79178;SDS011;68608;49.904;16.436;2023-12-07T06:16:40;47.63;;;30.57;;
79178;SDS011;68608;49.904;16.436;2023-12-07T06:19:06;43.33;;;28.43;;
79178;SDS011;68608;49.904;16.436;2023-12-07T06:21:32;49.70;;;31.07;;
79178;SDS011;68608;49.904;16.436;2023-12-07T06:23:59;39.93;;;26.97;;
79178;SDS011;68608;49.904;16.436;2023-12-07T06:26:25;48.67;;;31.83;;
79178;SDS011;68608;49.904;16.436;2023-12-07T06:28:51;41.80;;;27.53;;
79178;SDS011;68608;49.904;16.436;2023-12-07T06:31:17;39.63;;;28.13;;
79178;SDS011;68608;49.904;16.436;2023-12-07T06:33:47;39.50;;;26.07;;
79178;SDS011;68608;49.904;16.436;2023-12-07T06:36:20;38.10;;;26.40;;
79178;SDS011;68608;49.904;16.436;2023-12-07T06:38:46;42.30;;;28.47;;
79178;SDS011;68608;49.904;16.436;2023-12-07T06:41:12;39.67;;;26.87;;
79178;SDS011;68608;49.904;16.436;2023-12-07T06:43:38;45.90;;;28.43;;
79178;SDS011;68608;49.904;16.436;2023-12-07T06:46:04;47.10;;;29.93;;
79178;SDS011;68608;49.904;16.436;2023-12-07T06:48:31;48.57;;;30.50;;
79178;SDS011;68608;49.904;16.436;2023-12-07T06:50:57;45.37;;;28.87;;
79178;SDS011;68608;49.904;16.436;2023-12-07T06:53:23;40.13;;;26.37;;
79178;SDS011;68608;49.904;16.436;2023-12-07T06:55:49;37.70;;;26.40;;
79178;SDS011;68608;49.904;16.436;2023-12-07T06:58:15;39.13;;;26.43;;
79178;SDS011;68608;49.904;16.436;2023-12-07T07:00:41;40.70;;;26.43;;
79178;SDS011;68608;49.904;16.436;2023-12-07T07:03:07;40.67;;;26.90;;
79178;SDS011;68608;49.904;16.436;2023-12-07T07:05:33;34.43;;;23.57;;
79178;SDS011;68608;49.904;16.436;2023-12-07T07:08:00;41.47;;;26.07;;
79178;SDS011;68608;49.904;16.436;2023-12-07T07:10:26;44.33;;;28.60;;
79178;SDS011;68608;49.904;16.436;2023-12-07T07:12:54;36.63;;;25.40;;
79178;SDS011;68608;49.904;16.436;2023-12-07T07:15:20;41.10;;;27.07;;
79178;SDS011;68608;49.904;16.436;2023-12-07T07:17:48;46.27;;;28.73;;
79178;SDS011;68608;49.904;16.436;2023-12-07T07:20:14;49.43;;;30.40;;
79178;SDS011;68608;49.904;16.436;2023-12-07T07:22:40;44.93;;;30.80;;
79178;SDS011;68608;49.904;16.436;2023-12-07T07:25:06;47.77;;;30.63;;
79178;SDS011;68608;49.904;16.436;2023-12-07T07:27:32;39.90;;;26.90;;
79178;SDS011;68608;49.904;16.436;2023-12-07T07:29:59;36.80;;;25.20;;
79178;SDS011;68608;49.904;16.436;2023-12-07T07:32:25;37.53;;;25.83;;
79178;SDS011;68608;49.904;16.436;2023-12-07T07:34:51;37.53;;;27.33;;
79178;SDS011;68608;49.904;16.436;2023-12-07T07:37:17;44.47;;;28.37;;
79178;SDS011;68608;49.904;16.436;2023-12-07T07:39:43;41.53;;;26.67;;
79178;SDS011;68608;49.904;16.436;2023-12-07T07:42:09;38.83;;;26.33;;
79178;SDS011;68608;49.904;16.436;2023-12-07T07:44:36;36.63;;;25.97;;
79178;SDS011;68608;49.904;16.436;2023-12-07T07:47:02;44.57;;;29.27;;
79178;SDS011;68608;49.904;16.436;2023-12-07T07:49:28;41.03;;;28.40;;
79178;SDS011;68608;49.904;16.436;2023-12-07T07:51:54;41.37;;;26.77;;
79178;SDS011;68608;49.904;16.436;2023-12-07T07:54:20;37.63;;;26.97;;
79178;SDS011;68608;49.904;16.436;2023-12-07T07:56:46;42.03;;;28.57;;
79178;SDS011;68608;49.904;16.436;2023-12-07T07:59:12;41.27;;;28.17;;
79178;SDS011;68608;49.904;16.436;2023-12-07T08:01:38;42.77;;;28.17;;
79178;SDS011;68608;49.904;16.436;2023-12-07T08:04:04;36.80;;;27.73;;
79178;SDS011;68608;49.904;16.436;2023-12-07T08:06:30;37.27;;;25.23;;
79178;SDS011;68608;49.904;16.436;2023-12-07T08:08:56;38.47;;;25.97;;
79178;SDS011;68608;49.904;16.436;2023-12-07T08:11:22;34.17;;;23.43;;
79178;SDS011;68608;49.904;16.436;2023-12-07T08:13:48;43.23;;;26.90;;
79178;SDS011;68608;49.904;16.436;2023-12-07T08:16:15;39.13;;;24.97;;
79178;SDS011;68608;49.904;16.436;2023-12-07T08:18:41;38.60;;;27.17;;
79178;SDS011;68608;49.904;16.436;2023-12-07T08:21:07;40.03;;;27.87;;
79178;SDS011;68608;49.904;16.436;2023-12-07T08:23:34;45.17;;;28.77;;
79178;SDS011;68608;49.904;16.436;2023-12-07T08:26:00;39.90;;;26.83;;
79178;SDS011;68608;49.904;16.436;2023-12-07T08:28:27;39.67;;;25.97;;
79178;SDS011;68608;49.904;16.436;2023-12-07T08:30:53;45.70;;;28.20;;
79178;SDS011;68608;49.904;16.436;2023-12-07T08:33:19;38.83;;;25.80;;
79178;SDS011;68608;49.904;16.436;2023-12-07T08:35:45;41.33;;;27.77;;
79178;SDS011;68608;49.904;16.436;2023-12-07T08:38:12;43.07;;;28.20;;
79178;SDS011;68608;49.904;16.436;2023-12-07T08:40:38;43.73;;;26.03;;
79178;SDS011;68608;49.904;16.436;2023-12-07T08:43:04;37.87;;;26.20;;
79178;SDS011;68608;49.904;16.436;2023-12-07T08:45:30;36.83;;;25.23;;
79178;SDS011;68608;49.904;16.436;2023-12-07T08:47:56;37.07;;;25.80;;
79178;SDS011;68608;49.904;16.436;2023-12-07T08:50:22;42.30;;;27.07;;
79178;SDS011;68608;49.904;16.436;2023-12-07T08:52:48;37.13;;;26.03;;
79178;SDS011;68608;49.904;16.436;2023-12-07T08:55:14;41.40;;;25.17;;
79178;SDS011;68608;49.904;16.436;2023-12-07T08:57:40;39.13;;;25.13;;
79178;SDS011;68608;49.904;16.436;2023-12-07T09:00:07;43.40;;;27.57;;
79178;SDS011;68608;49.904;16.436;2023-12-07T09:02:33;40.53;;;28.03;;
79178;SDS011;68608;49.904;16.436;2023-12-07T09:04:59;36.20;;;24.13;;
79178;SDS011;68608;49.904;16.436;2023-12-07T09:07:25;37.70;;;24.47;;
79178;SDS011;68608;49.904;16.436;2023-12-07T09:09:51;33.67;;;23.83;;
79178;SDS011;68608;49.904;16.436;2023-12-07T09:12:17;40.83;;;27.17;;
79178;SDS011;68608;49.904;16.436;2023-12-07T09:14:43;45.97;;;29.57;;
79178;SDS011;68608;49.904;16.436;2023-12-07T09:17:09;40.77;;;27.77;;
79178;SDS011;68608;49.904;16.436;2023-12-07T09:19:35;42.33;;;27.80;;
79178;SDS011;68608;49.904;16.436;2023-12-07T09:22:01;42.43;;;29.57;;
79178;SDS011;68608;49.904;16.436;2023-12-07T09:24:27;46.50;;;28.27;;
79178;SDS011;68608;49.904;16.436;2023-12-07T09:26:53;43.83;;;26.50;;
79178;SDS011;68608;49.904;16.436;2023-12-07T09:29:19;38.23;;;25.97;;
79178;SDS011;68608;49.904;16.436;2023-12-07T09:31:45;59.20;;;38.83;;
79178;SDS011;68608;49.904;16.436;2023-12-07T09:34:11;36.63;;;24.37;;
79178;SDS011;68608;49.904;16.436;2023-12-07T09:36:42;34.50;;;24.97;;
79178;SDS011;68608;49.904;16.436;2023-12-07T09:39:08;35.53;;;24.53;;
79178;SDS011;68608;49.904;16.436;2023-12-07T09:41:35;31.57;;;23.80;;
79178;SDS011;68608;49.904;16.436;2023-12-07T09:44:02;36.37;;;25.07;;
79178;SDS011;68608;49.904;16.436;2023-12-07T09:46:28;31.73;;;23.73;;
79178;SDS011;68608;49.904;16.436;2023-12-07T09:48:55;33.07;;;24.50;;
79178;SDS011;68608;49.904;16.436;2023-12-07T09:51:22;34.37;;;25.20;;
79178;SDS011;68608;49.904;16.436;2023-12-07T09:53:48;35.73;;;25.90;;
79178;SDS011;68608;49.904;16.436;2023-12-07T09:56:14;36.03;;;25.10;;
79178;SDS011;68608;49.904;16.436;2023-12-07T09:58:40;38.23;;;26.83;;
79178;SDS011;68608;49.904;16.436;2023-12-07T10:01:07;36.40;;;25.73;;
79178;SDS011;68608;49.904;16.436;2023-12-07T10:03:34;40.17;;;27.53;;
79178;SDS011;68608;49.904;16.436;2023-12-07T10:06:03;40.03;;;26.43;;
79178;SDS011;68608;49.904;16.436;2023-12-07T10:08:30;37.77;;;26.47;;
79178;SDS011;68608;49.904;16.436;2023-12-07T10:11:03;36.20;;;26.00;;
79178;SDS011;68608;49.904;16.436;2023-12-07T10:13:30;36.90;;;26.70;;
79178;SDS011;68608;49.904;16.436;2023-12-07T10:16:06;47.17;;;31.63;;
79178;SDS011;68608;49.904;16.436;2023-12-07T10:18:32;37.63;;;26.40;;
79178;SDS011;68608;49.904;16.436;2023-12-07T10:20:58;32.33;;;23.43;;
79178;SDS011;68608;49.904;16.436;2023-12-07T10:23:24;38.67;;;27.33;;
79178;SDS011;68608;49.904;16.436;2023-12-07T10:25:52;39.83;;;27.33;;
79178;SDS011;68608;49.904;16.436;2023-12-07T10:28:18;41.77;;;27.03;;
79178;SDS011;68608;49.904;16.436;2023-12-07T10:30:44;34.03;;;24.10;;
79178;SDS011;68608;49.904;16.436;2023-12-07T10:33:11;39.93;;;28.27;;
79178;SDS011;68608;49.904;16.436;2023-12-07T10:35:47;35.53;;;27.37;;
79178;SDS011;68608;49.904;16.436;2023-12-07T10:38:13;34.77;;;24.43;;
79178;SDS011;68608;49.904;16.436;2023-12-07T10:40:40;37.03;;;25.93;;
79178;SDS011;68608;49.904;16.436;2023-12-07T10:43:07;41.00;;;29.00;;
79178;SDS011;68608;49.904;16.436;2023-12-07T10:45:33;37.27;;;26.10;;
79178;SDS011;68608;49.904;16.436;2023-12-07T10:48:04;38.40;;;27.10;;
79178;SDS011;68608;49.904;16.436;2023-12-07T10:50:31;41.00;;;28.23;;
79178;SDS011;68608;49.904;16.436;2023-12-07T10:52:59;37.87;;;26.87;;
79178;SDS011;68608;49.904;16.436;2023-12-07T10:55:38;36.87;;;27.00;;
79178;SDS011;68608;49.904;16.436;2023-12-07T10:58:21;41.07;;;29.33;;
79178;SDS011;68608;49.904;16.436;2023-12-07T11:07:21;37.07;;;25.30;;
79178;SDS011;68608;49.904;16.436;2023-12-07T11:15:56;38.90;;;25.57;;
79178;SDS011;68608;49.904;16.436;2023-12-07T11:18:26;35.67;;;24.07;;
79178;SDS011;68608;49.904;16.436;2023-12-07T11:20:54;38.10;;;27.03;;
79178;SDS011;68608;49.904;16.436;2023-12-07T11:23:21;38.83;;;28.17;;
79178;SDS011;68608;49.904;16.436;2023-12-07T11:25:47;35.50;;;24.43;;
79178;SDS011;68608;49.904;16.436;2023-12-07T11:28:14;32.90;;;24.23;;
79178;SDS011;68608;49.904;16.436;2023-12-07T11:30:46;35.07;;;25.03;;
79178;SDS011;68608;49.904;16.436;2023-12-07T11:33:13;36.17;;;26.13;;
79178;SDS011;68608;49.904;16.436;2023-12-07T11:38:24;33.73;;;23.33;;
79178;SDS011;68608;49.904;16.436;2023-12-07T11:40:50;32.83;;;24.00;;
79178;SDS011;68608;49.904;16.436;2023-12-07T11:43:19;30.10;;;23.27;;
79178;SDS011;68608;49.904;16.436;2023-12-07T11:45:56;32.70;;;24.93;;
79178;SDS011;68608;49.904;16.436;2023-12-07T11:48:22;29.97;;;22.63;;
79178;SDS011;68608;49.904;16.436;2023-12-07T11:53:27;28.17;;;21.90;;
79178;SDS011;68608;49.904;16.436;2023-12-07T11:55:54;29.30;;;20.93;;
79178;SDS011;68608;49.904;16.436;2023-12-07T11:58:21;29.57;;;21.27;;
79178;SDS011;68608;49.904;16.436;2023-12-07T12:00:47;29.93;;;22.47;;
79178;SDS011;68608;49.904;16.436;2023-12-07T12:03:14;31.40;;;23.67;;
79178;SDS011;68608;49.904;16.436;2023-12-07T12:05:40;29.17;;;21.87;;
79178;SDS011;68608;49.904;16.436;2023-12-07T12:13:46;28.43;;;23.83;;
79178;SDS011;68608;49.904;16.436;2023-12-07T12:16:12;28.53;;;21.13;;
79178;SDS011;68608;49.904;16.436;2023-12-07T12:18:39;28.60;;;21.17;;
79178;SDS011;68608;49.904;16.436;2023-12-07T12:21:06;32.80;;;22.57;;
79178;SDS011;68608;49.904;16.436;2023-12-07T12:23:34;32.57;;;24.10;;
79178;SDS011;68608;49.904;16.436;2023-12-07T12:26:00;33.00;;;23.70;;
79178;SDS011;68608;49.904;16.436;2023-12-07T12:28:26;30.23;;;22.50;;
79178;SDS011;68608;49.904;16.436;2023-12-07T12:30:54;26.77;;;21.13;;
79178;SDS011;68608;49.904;16.436;2023-12-07T12:33:20;27.50;;;21.33;;
79178;SDS011;68608;49.904;16.436;2023-12-07T12:35:46;25.93;;;20.47;;
79178;SDS011;68608;49.904;16.436;2023-12-07T12:38:12;26.17;;;20.07;;
79178;SDS011;68608;49.904;16.436;2023-12-07T12:40:39;22.43;;;18.37;;
79178;SDS011;68608;49.904;16.436;2023-12-07T12:43:06;28.30;;;20.60;;
79178;SDS011;68608;49.904;16.436;2023-12-07T12:45:33;28.90;;;21.83;;
79178;SDS011;68608;49.904;16.436;2023-12-07T12:47:59;27.43;;;21.37;;
79178;SDS011;68608;49.904;16.436;2023-12-07T12:50:32;25.50;;;20.23;;
79178;SDS011;68608;49.904;16.436;2023-12-07T12:52:59;25.83;;;21.07;;
79178;SDS011;68608;49.904;16.436;2023-12-07T12:55:26;26.10;;;21.40;;
79178;SDS011;68608;49.904;16.436;2023-12-07T12:57:54;27.30;;;21.13;;
79178;SDS011;68608;49.904;16.436;2023-12-07T13:00:21;24.30;;;20.20;;
79178;SDS011;68608;49.904;16.436;2023-12-07T13:02:47;26.73;;;20.73;;
79178;SDS011;68608;49.904;16.436;2023-12-07T13:05:13;29.97;;;22.40;;
79178;SDS011;68608;49.904;16.436;2023-12-07T13:07:39;27.43;;;20.90;;
79178;SDS011;68608;49.904;16.436;2023-12-07T13:10:05;26.50;;;21.40;;
79178;SDS011;68608;49.904;16.436;2023-12-07T13:12:33;29.50;;;21.53;;
79178;SDS011;68608;49.904;16.436;2023-12-07T13:15:00;29.03;;;21.93;;
79178;SDS011;68608;49.904;16.436;2023-12-07T13:17:26;31.53;;;23.63;;
79178;SDS011;68608;49.904;16.436;2023-12-07T13:19:52;27.63;;;21.47;;
79178;SDS011;68608;49.904;16.436;2023-12-07T13:22:19;27.20;;;20.53;;
79178;SDS011;68608;49.904;16.436;2023-12-07T13:25:05;25.87;;;20.40;;
79178;SDS011;68608;49.904;16.436;2023-12-07T13:27:34;27.20;;;19.70;;
79178;SDS011;68608;49.904;16.436;2023-12-07T13:30:02;27.37;;;20.70;;
79178;SDS011;68608;49.904;16.436;2023-12-07T13:32:40;22.10;;;17.70;;
79178;SDS011;68608;49.904;16.436;2023-12-07T13:35:06;25.63;;;19.47;;
79178;SDS011;68608;49.904;16.436;2023-12-07T13:37:33;22.87;;;18.13;;
79178;SDS011;68608;49.904;16.436;2023-12-07T13:39:59;30.33;;;21.50;;
79178;SDS011;68608;49.904;16.436;2023-12-07T13:42:28;29.37;;;20.70;;
79178;SDS011;68608;49.904;16.436;2023-12-07T13:44:58;28.80;;;22.30;;
79178;SDS011;68608;49.904;16.436;2023-12-07T13:47:25;29.77;;;21.03;;
79178;SDS011;68608;49.904;16.436;2023-12-07T13:49:56;29.83;;;23.90;;
79178;SDS011;68608;49.904;16.436;2023-12-07T13:52:22;23.03;;;19.03;;
79178;SDS011;68608;49.904;16.436;2023-12-07T13:54:48;23.57;;;19.00;;
79178;SDS011;68608;49.904;16.436;2023-12-07T13:57:15;26.10;;;19.87;;
79178;SDS011;68608;49.904;16.436;2023-12-07T13:59:41;29.13;;;19.57;;
79178;SDS011;68608;49.904;16.436;2023-12-07T14:02:07;25.83;;;20.10;;
79178;SDS011;68608;49.904;16.436;2023-12-07T14:04:33;26.73;;;21.30;;
79178;SDS011;68608;49.904;16.436;2023-12-07T14:07:10;24.47;;;19.50;;
79178;SDS011;68608;49.904;16.436;2023-12-07T14:09:37;25.30;;;21.23;;
79178;SDS011;68608;49.904;16.436;2023-12-07T14:12:03;26.83;;;20.13;;
79178;SDS011;68608;49.904;16.436;2023-12-07T14:14:30;29.63;;;22.30;;
79178;SDS011;68608;49.904;16.436;2023-12-07T14:16:56;26.83;;;19.80;;
79178;SDS011;68608;49.904;16.436;2023-12-07T14:19:23;27.17;;;20.83;;
79178;SDS011;68608;49.904;16.436;2023-12-07T14:21:49;25.97;;;19.97;;
79178;SDS011;68608;49.904;16.436;2023-12-07T14:24:15;30.70;;;23.57;;
79178;SDS011;68608;49.904;16.436;2023-12-07T14:26:44;32.53;;;24.17;;
79178;SDS011;68608;49.904;16.436;2023-12-07T14:29:10;28.93;;;22.70;;
79178;SDS011;68608;49.904;16.436;2023-12-07T14:31:42;33.83;;;24.87;;
79178;SDS011;68608;49.904;16.436;2023-12-07T14:34:08;33.23;;;25.63;;
79178;SDS011;68608;49.904;16.436;2023-12-07T14:36:35;30.33;;;22.23;;
79178;SDS011;68608;49.904;16.436;2023-12-07T14:39:03;31.40;;;24.53;;
79178;SDS011;68608;49.904;16.436;2023-12-07T14:41:31;31.03;;;25.37;;
79178;SDS011;68608;49.904;16.436;2023-12-07T14:43:58;35.40;;;26.00;;